Buoy 52514

sailwx.info

Track history (hours):
 
Tides and Currents Weather Stations Pressure Air Temp Water Temp Dewpoint Dewpoint Depression Visibility Wind Speed Wind Dir Waves Ship Positions

Drifting buoy 52514

Last reported at 2016-Feb-12 08:00 UTC. Time now 2016-Feb-12 12:07 UTC.
Position N 21°26' E 132°15'.

Date/timePositionNaut miles runAvg speedWind from/ knotsBaromVisibWave heightAir tempDewpointWater temp
2016-Feb-12 08:00N 21°26' E 132°15'1 0.7
2016-Feb-12 07:00N 21°26' E 132°16'1 1.5
2016-Feb-12 06:00N 21°27' E 132°16'1 0.5
2016-Feb-12 04:00N 21°28' E 132°16'0 0.0
2016-Feb-12 03:00N 21°28' E 132°16'2 1.0
2016-Feb-12 01:00N 21°30' E 132°15'1 0.5
2016-Feb-12 00:00N 21°30' E 132°16'0 0.4
2016-Feb-11 23:00N 21°31' E 132°15'1 0.3
2016-Feb-11 18:00N 21°29' E 132°16'0 0.3
2016-Feb-11 17:00N 21°29' E 132°16'1 0.3
2016-Feb-11 13:00N 21°29' E 132°17'1 0.4
2016-Feb-11 11:00N 21°30' E 132°18'1 0.3
2016-Feb-11 08:00N 21°29' E 132°19'3 0.9
2016-Feb-11 05:00N 21°29' E 132°22'1 0.2
2016-Feb-11 02:00N 21°29' E 132°22'0 0.0
2016-Feb-11 01:00N 21°29' E 132°22'1 0.2
2016-Feb-10 17:00N 21°29' E 132°21'2 0.3
2016-Feb-10 12:00N 21°27' E 132°20'2 0.4
2016-Feb-10 08:00N 21°26' E 132°20'1 1.0
2016-Feb-10 07:00N 21°25' E 132°21'1 0.4
2016-Feb-10 04:00N 21°24' E 132°22'1 0.1
2016-Feb-09 21:00N 21°24' E 132°21'0 0.2
2016-Feb-09 20:00N 21°24' E 132°21'1 0.3
2016-Feb-09 17:00N 21°23' E 132°20'0 0.0
2016-Feb-09 16:00N 21°23' E 132°20'2 0.4
2016-Feb-09 12:00N 21°23' E 132°18'0 0.2
2016-Feb-09 11:00N 21°22' E 132°19'2 0.6
2016-Feb-09 08:00N 21°21' E 132°17'0 0.0
2016-Feb-09 07:00N 21°21' E 132°17'1 1.0
2016-Feb-09 06:00N 21°20' E 132°18'0 0.0
2016-Feb-09 04:00N 21°20' E 132°18'0 0.1
2016-Feb-09 01:00N 21°20' E 132°18'0 0.4
2016-Feb-09 00:00N 21°20' E 132°18'1 1.2
2016-Feb-08 23:00N 21°19' E 132°17'0 0.2
2016-Feb-08 21:00N 21°19' E 132°16'1 1.0
2016-Feb-08 20:00N 21°18' E 132°16'0 0.0
2016-Feb-08 19:00N 21°18' E 132°16'2 0.3
2016-Feb-08 13:00N 21°17' E 132°15'1 0.3
2016-Feb-08 09:00N 21°16' E 132°14'1 0.3
2016-Feb-08 07:00N 21°15' E 132°14'0 0.5
2016-Feb-08 06:00N 21°16' E 132°13'0 0.1
2016-Feb-08 05:00N 21°15' E 132°13'1 0.4
2016-Feb-08 01:00N 21°16' E 132°12'0 0.1
2016-Feb-08 00:00N 21°16' E 132°12'1 1.1
2016-Feb-07 23:00N 21°16' E 132°10'1 0.6
2016-Feb-07 22:00N 21°16' E 132°10'0 0.3
2016-Feb-07 21:00N 21°16' E 132°09'5 0.6
2016-Feb-07 13:00N 21°14' E 132°04'0 0.4
2016-Feb-07 12:00N 21°14' E 132°04'0 0.3
2016-Feb-07 11:00N 21°14' E 132°04'1 1.0
2016-Feb-07 10:00N 21°14' E 132°03'1 0.7
2016-Feb-07 09:00N 21°13' E 132°03'1 0.9
2016-Feb-07 08:00N 21°13' E 132°04'1 0.3
2016-Feb-07 05:00N 21°13' E 132°03'0 0.0
2016-Feb-07 01:00N 21°13' E 132°03'1 1.2
2016-Feb-07 00:00N 21°14' E 132°03'0 0.0
2016-Feb-06 23:00N 21°14' E 132°03'1 0.3
2016-Feb-06 21:00N 21°14' E 132°03'0 0.0
2016-Feb-06 20:00N 21°14' E 132°03'1 0.4
2016-Feb-06 18:00N 21°15' E 132°02'0 0.0
2016-Feb-06 17:00N 21°15' E 132°02'3 0.6
2016-Feb-06 11:00N 21°16' E 131°59'2 0.3
2016-Feb-06 05:00N 21°16' E 131°57'2 0.5
2016-Feb-06 01:00N 21°17' E 131°56'1 0.7
2016-Feb-05 23:00N 21°18' E 131°54'0 0.0
2016-Feb-05 22:00N 21°18' E 131°54'0 0.5
2016-Feb-05 21:00N 21°18' E 131°54'2 1.7
2016-Feb-05 20:00N 21°18' E 131°52'0 0.0
2016-Feb-05 19:00N 21°18' E 131°52'1 0.9
2016-Feb-05 18:00N 21°19' E 131°52'0 0.0
2016-Feb-05 17:00N 21°19' E 131°52'6 1.4
2016-Feb-05 13:00N 21°21' E 131°46'1 0.7
2016-Feb-05 12:00N 21°21' E 131°45'5 1.2
2016-Feb-05 08:00N 21°21' E 131°40'0 0.0
2016-Feb-05 07:00N 21°21' E 131°40'3 0.5
2016-Feb-05 01:00N 21°23' E 131°37'3 1.7
2016-Feb-04 23:00N 21°24' E 131°34'0 0.2
2016-Feb-04 21:00N 21°24' E 131°33'2 2.4
2016-Feb-04 20:00N 21°24' E 131°31'0 0.0
2016-Feb-04 18:00N 21°24' E 131°31'0 0.0
2016-Feb-04 17:00N 21°24' E 131°31'4 4.3
2016-Feb-04 16:00N 21°26' E 131°26'0 0.0
2016-Feb-04 13:00N 21°26' E 131°26'1 1.0
2016-Feb-04 12:00N 21°26' E 131°25'3 1.0
2016-Feb-04 09:00N 21°28' E 131°23'3 1.6
2016-Feb-04 07:00N 21°30' E 131°20'0 0.0
2016-Feb-04 06:00N 21°30' E 131°20'5 2.3
2016-Feb-04 04:00N 21°34' E 131°17'0 0.1
2016-Feb-04 02:00N 21°34' E 131°17'1 1.0
2016-Feb-04 01:00N 21°34' E 131°16'4 1.5
2016-Feb-03 22:00N 21°37' E 131°12'3 1.7
2016-Feb-03 20:00N 21°39' E 131°09'5 0.7
2016-Feb-03 13:00N 21°42' E 131°06'3 1.3
2016-Feb-03 11:00N 21°45' E 131°05'2 1.2
2016-Feb-03 09:00N 21°47' E 131°05'0 0.2
2016-Feb-03 08:00N 21°47' E 131°05'5 2.5
2016-Feb-03 06:00N 21°51' E 131°02'8 1.0
2016-Feb-02 22:00N 21°58' E 130°57'1 1.3
2016-Feb-02 21:00N 21°59' E 130°56'1 0.9
2016-Feb-02 20:00N 21°59' E 130°56'3 1.1
2016-Feb-02 17:00N 22°02' E 130°54'4 1.0
2016-Feb-02 13:00N 22°05' E 130°51'2 0.8
2016-Feb-02 11:00N 22°07' E 130°52'1 1.4
2016-Feb-02 10:00N 22°08' E 130°52'1 0.8
2016-Feb-02 09:00N 22°09' E 130°52'1 0.7
2016-Feb-02 08:00N 22°10' E 130°52'  
Track history (hours):
 
Tides and Currents Weather Stations Pressure Air Temp Water Temp Dewpoint Dewpoint Depression Visibility Wind Speed Wind Dir Waves Ship Positions

Drifting buoy 52514

Last reported at 2016-Feb-12 08:00 UTC. Time now 2016-Feb-12 12:07 UTC.
Position N 21°26' E 132°15'.

Date/timePositionNaut miles runAvg speedWind from/ knotsBaromVisibWave heightAir tempDewpointWater temp
2016-Feb-12 08:00N 21°26' E 132°15'1 0.7
2016-Feb-12 07:00N 21°26' E 132°16'1 1.5
2016-Feb-12 06:00N 21°27' E 132°16'1 0.5
2016-Feb-12 04:00N 21°28' E 132°16'0 0.0
2016-Feb-12 03:00N 21°28' E 132°16'2 1.0
2016-Feb-12 01:00N 21°30' E 132°15'1 0.5
2016-Feb-12 00:00N 21°30' E 132°16'0 0.4
2016-Feb-11 23:00N 21°31' E 132°15'1 0.3
2016-Feb-11 18:00N 21°29' E 132°16'0 0.3
2016-Feb-11 17:00N 21°29' E 132°16'1 0.3
2016-Feb-11 13:00N 21°29' E 132°17'1 0.4
2016-Feb-11 11:00N 21°30' E 132°18'1 0.3
2016-Feb-11 08:00N 21°29' E 132°19'3 0.9
2016-Feb-11 05:00N 21°29' E 132°22'1 0.2
2016-Feb-11 02:00N 21°29' E 132°22'0 0.0
2016-Feb-11 01:00N 21°29' E 132°22'1 0.2
2016-Feb-10 17:00N 21°29' E 132°21'2 0.3
2016-Feb-10 12:00N 21°27' E 132°20'2 0.4
2016-Feb-10 08:00N 21°26' E 132°20'1 1.0
2016-Feb-10 07:00N 21°25' E 132°21'1 0.4
2016-Feb-10 04:00N 21°24' E 132°22'1 0.1
2016-Feb-09 21:00N 21°24' E 132°21'0 0.2
2016-Feb-09 20:00N 21°24' E 132°21'1 0.3
2016-Feb-09 17:00N 21°23' E 132°20'0 0.0
2016-Feb-09 16:00N 21°23' E 132°20'2 0.4
2016-Feb-09 12:00N 21°23' E 132°18'0 0.2
2016-Feb-09 11:00N 21°22' E 132°19'2 0.6
2016-Feb-09 08:00N 21°21' E 132°17'0 0.0
2016-Feb-09 07:00N 21°21' E 132°17'1 1.0
2016-Feb-09 06:00N 21°20' E 132°18'0 0.0
2016-Feb-09 04:00N 21°20' E 132°18'0 0.1
2016-Feb-09 01:00N 21°20' E 132°18'0 0.4
2016-Feb-09 00:00N 21°20' E 132°18'1 1.2
2016-Feb-08 23:00N 21°19' E 132°17'0 0.2
2016-Feb-08 21:00N 21°19' E 132°16'1 1.0
2016-Feb-08 20:00N 21°18' E 132°16'0 0.0
2016-Feb-08 19:00N 21°18' E 132°16'2 0.3
2016-Feb-08 13:00N 21°17' E 132°15'1 0.3
2016-Feb-08 09:00N 21°16' E 132°14'1 0.3
2016-Feb-08 07:00N 21°15' E 132°14'0 0.5
2016-Feb-08 06:00N 21°16' E 132°13'0 0.1
2016-Feb-08 05:00N 21°15' E 132°13'1 0.4
2016-Feb-08 01:00N 21°16' E 132°12'0 0.1
2016-Feb-08 00:00N 21°16' E 132°12'1 1.1
2016-Feb-07 23:00N 21°16' E 132°10'1 0.6
2016-Feb-07 22:00N 21°16' E 132°10'0 0.3
2016-Feb-07 21:00N 21°16' E 132°09'5 0.6
2016-Feb-07 13:00N 21°14' E 132°04'0 0.4
2016-Feb-07 12:00N 21°14' E 132°04'0 0.3
2016-Feb-07 11:00N 21°14' E 132°04'1 1.0
2016-Feb-07 10:00N 21°14' E 132°03'1 0.7
2016-Feb-07 09:00N 21°13' E 132°03'1 0.9
2016-Feb-07 08:00N 21°13' E 132°04'1 0.3
2016-Feb-07 05:00N 21°13' E 132°03'0 0.0
2016-Feb-07 01:00N 21°13' E 132°03'1 1.2
2016-Feb-07 00:00N 21°14' E 132°03'0 0.0
2016-Feb-06 23:00N 21°14' E 132°03'1 0.3
2016-Feb-06 21:00N 21°14' E 132°03'0 0.0
2016-Feb-06 20:00N 21°14' E 132°03'1 0.4
2016-Feb-06 18:00N 21°15' E 132°02'0 0.0
2016-Feb-06 17:00N 21°15' E 132°02'3 0.6
2016-Feb-06 11:00N 21°16' E 131°59'2 0.3
2016-Feb-06 05:00N 21°16' E 131°57'2 0.5
2016-Feb-06 01:00N 21°17' E 131°56'1 0.7
2016-Feb-05 23:00N 21°18' E 131°54'0 0.0
2016-Feb-05 22:00N 21°18' E 131°54'0 0.5
2016-Feb-05 21:00N 21°18' E 131°54'2 1.7
2016-Feb-05 20:00N 21°18' E 131°52'0 0.0
2016-Feb-05 19:00N 21°18' E 131°52'1 0.9
2016-Feb-05 18:00N 21°19' E 131°52'0 0.0
2016-Feb-05 17:00N 21°19' E 131°52'6 1.4
2016-Feb-05 13:00N 21°21' E 131°46'1 0.7
2016-Feb-05 12:00N 21°21' E 131°45'5 1.2
2016-Feb-05 08:00N 21°21' E 131°40'0 0.0
2016-Feb-05 07:00N 21°21' E 131°40'3 0.5
2016-Feb-05 01:00N 21°23' E 131°37'3 1.7
2016-Feb-04 23:00N 21°24' E 131°34'0 0.2
2016-Feb-04 21:00N 21°24' E 131°33'2 2.4
2016-Feb-04 20:00N 21°24' E 131°31'0 0.0
2016-Feb-04 18:00N 21°24' E 131°31'0 0.0
2016-Feb-04 17:00N 21°24' E 131°31'4 4.3
2016-Feb-04 16:00N 21°26' E 131°26'0 0.0
2016-Feb-04 13:00N 21°26' E 131°26'1 1.0
2016-Feb-04 12:00N 21°26' E 131°25'3 1.0
2016-Feb-04 09:00N 21°28' E 131°23'3 1.6
2016-Feb-04 07:00N 21°30' E 131°20'0 0.0
2016-Feb-04 06:00N 21°30' E 131°20'5 2.3
2016-Feb-04 04:00N 21°34' E 131°17'0 0.1
2016-Feb-04 02:00N 21°34' E 131°17'1 1.0
2016-Feb-04 01:00N 21°34' E 131°16'4 1.5
2016-Feb-03 22:00N 21°37' E 131°12'3 1.7
2016-Feb-03 20:00N 21°39' E 131°09'5 0.7
2016-Feb-03 13:00N 21°42' E 131°06'3 1.3
2016-Feb-03 11:00N 21°45' E 131°05'2 1.2
2016-Feb-03 09:00N 21°47' E 131°05'0 0.2
2016-Feb-03 08:00N 21°47' E 131°05'5 2.5
2016-Feb-03 06:00N 21°51' E 131°02'8 1.0
2016-Feb-02 22:00N 21°58' E 130°57'1 1.3
2016-Feb-02 21:00N 21°59' E 130°56'1 0.9
2016-Feb-02 20:00N 21°59' E 130°56'3 1.1
2016-Feb-02 17:00N 22°02' E 130°54'4 1.0
2016-Feb-02 13:00N 22°05' E 130°51'2 0.8
2016-Feb-02 11:00N 22°07' E 130°52'1 1.4
2016-Feb-02 10:00N 22°08' E 130°52'1 0.8
2016-Feb-02 09:00N 22°09' E 130°52'1 0.7
2016-Feb-02 08:00N 22°10' E 130°52'  

Dump ship's entire track history